createdAt,value
2023-03-03T00:01:40.774Z,39.63
2023-03-03T00:04:13.151Z,44.25
2023-03-03T00:06:39.801Z,43.13
2023-03-03T00:09:06.707Z,43.67
2023-03-03T00:11:33.235Z,44.05
2023-03-03T00:13:59.784Z,44.30
2023-03-03T00:16:36.044Z,44.42
2023-03-03T00:19:02.839Z,40.75
2023-03-03T00:21:35.690Z,41.80
2023-03-03T00:24:05.330Z,41.90
2023-03-03T00:26:36.569Z,43.10
2023-03-03T00:29:28.822Z,43.15
2023-03-03T00:31:55.825Z,41.60
2023-03-03T00:34:27.440Z,40.58
2023-03-03T00:36:58.837Z,39.80
2023-03-03T00:39:36.700Z,37.63
2023-03-03T00:42:12.801Z,40.83
2023-03-03T00:44:44.366Z,42.47
2023-03-03T00:47:19.049Z,39.90
2023-03-03T00:49:45.557Z,43.15
2023-03-03T00:52:18.385Z,41.28
2023-03-03T00:54:45.002Z,40.47
2023-03-03T00:57:12.694Z,39.55
2023-03-03T00:59:39.671Z,40.95
2023-03-03T01:02:06.610Z,39.75
2023-03-03T01:04:33.129Z,39.33
2023-03-03T01:06:59.642Z,38.38
2023-03-03T01:09:26.138Z,38.85
2023-03-03T01:11:52.675Z,41.97
2023-03-03T01:14:19.325Z,43.10
2023-03-03T01:16:45.963Z,42.58
2023-03-03T01:19:12.493Z,44.50
2023-03-03T01:21:40.089Z,43.70
2023-03-03T01:24:06.604Z,45.30
2023-03-03T01:26:33.120Z,43.30
2023-03-03T01:28:59.607Z,39.08
2023-03-03T01:31:26.387Z,38.83
2023-03-03T01:33:52.963Z,39.42
2023-03-03T01:36:26.913Z,38.38
2023-03-03T01:38:53.714Z,35.72
2023-03-03T01:41:20.626Z,37.85
2023-03-03T01:43:49.778Z,39.25
2023-03-03T01:46:36.403Z,39.38
2023-03-03T01:49:08.169Z,40.97
2023-03-03T01:51:56.127Z,40.13
2023-03-03T01:54:34.098Z,41.30
2023-03-03T01:57:03.575Z,40.53
2023-03-03T01:59:34.548Z,44.33
2023-03-03T02:04:27.590Z,41.75
2023-03-03T02:07:08.379Z,41.78
2023-03-03T02:09:53.881Z,42.13
2023-03-03T02:12:26.583Z,39.03
2023-03-03T02:14:53.106Z,38.55
2023-03-03T02:17:19.648Z,40.53
2023-03-03T02:20:07.898Z,38.55
2023-03-03T02:22:49.274Z,44.15
2023-03-03T02:25:25.768Z,42.50
2023-03-03T02:27:52.931Z,39.15
2023-03-03T02:30:21.901Z,38.40
2023-03-03T02:32:48.429Z,39.80
2023-03-03T02:35:41.716Z,40.25
2023-03-03T02:38:20.468Z,35.55
2023-03-03T02:41:00.813Z,43.42
2023-03-03T02:43:34.810Z,40.58
2023-03-03T02:46:01.356Z,40.33
2023-03-03T02:48:27.880Z,44.40
2023-03-03T02:50:54.573Z,45.42
2023-03-03T02:53:21.125Z,43.88
2023-03-03T02:55:47.548Z,44.88
2023-03-03T02:58:14.092Z,46.03
2023-03-03T03:00:40.688Z,44.30
2023-03-03T03:03:07.369Z,46.00
2023-03-03T03:05:33.977Z,45.70
2023-03-03T03:08:00.425Z,46.75
2023-03-03T03:10:26.970Z,43.08
2023-03-03T03:12:53.501Z,46.33
2023-03-03T03:15:20.329Z,45.03
2023-03-03T03:17:46.890Z,44.30
2023-03-03T03:20:14.679Z,44.40
2023-03-03T03:22:41.189Z,45.58
2023-03-03T03:25:08.210Z,45.13
2023-03-03T03:27:34.747Z,42.90
2023-03-03T03:30:01.257Z,42.50
2023-03-03T03:32:28.095Z,43.13
2023-03-03T03:34:54.673Z,40.28
2023-03-03T03:37:21.383Z,35.33
2023-03-03T03:39:47.890Z,30.65
2023-03-03T03:42:14.399Z,32.45
2023-03-03T03:44:41.034Z,30.20
2023-03-03T03:47:07.698Z,31.05
2023-03-03T03:49:34.274Z,30.42
2023-03-03T03:52:00.773Z,34.45
2023-03-03T03:54:27.321Z,31.13
2023-03-03T03:56:54.644Z,32.90
2023-03-03T03:59:21.332Z,32.45
2023-03-03T04:01:50.038Z,27.92
2023-03-03T04:04:17.467Z,25.77
2023-03-03T04:06:44.167Z,28.15
2023-03-03T04:09:11.264Z,25.30
2023-03-03T04:11:37.786Z,25.92
2023-03-03T04:14:04.477Z,27.25
2023-03-03T04:16:31.003Z,26.25
2023-03-03T04:18:57.879Z,25.85
2023-03-03T04:21:25.189Z,24.25
2023-03-03T04:23:53.618Z,21.17
2023-03-03T04:26:20.202Z,22.85
2023-03-03T04:28:46.725Z,24.30
2023-03-03T04:31:13.329Z,23.52
2023-03-03T04:33:39.896Z,23.20
2023-03-03T04:36:06.528Z,22.00
2023-03-03T04:38:33.056Z,21.83
2023-03-03T04:40:59.542Z,23.13
2023-03-03T04:43:26.138Z,22.95
2023-03-03T04:45:52.695Z,19.90
2023-03-03T04:48:19.302Z,22.40
2023-03-03T04:50:45.870Z,19.42
2023-03-03T04:53:12.387Z,19.73
2023-03-03T04:55:39.206Z,19.98
2023-03-03T04:58:06.335Z,18.83
2023-03-03T05:00:33.005Z,19.73
2023-03-03T05:02:59.990Z,18.55
2023-03-03T05:07:59.602Z,23.45
2023-03-03T05:10:26.198Z,23.30
2023-03-03T05:12:52.729Z,26.77
2023-03-03T05:15:19.441Z,26.10
2023-03-03T05:17:46.015Z,25.10
2023-03-03T05:20:13.912Z,25.70
2023-03-03T05:22:40.602Z,25.48
2023-03-03T05:25:07.674Z,25.48
2023-03-03T05:27:34.398Z,24.92
2023-03-03T05:30:00.965Z,26.92
2023-03-03T05:32:27.499Z,24.55
2023-03-03T05:34:54.214Z,24.17
2023-03-03T05:37:20.725Z,25.45
2023-03-03T05:39:47.304Z,28.88
2023-03-03T05:42:14.893Z,27.13
2023-03-03T05:44:41.454Z,28.23
2023-03-03T05:47:08.109Z,29.25
2023-03-03T05:49:34.699Z,27.13
2023-03-03T05:52:01.696Z,27.38
2023-03-03T05:54:28.285Z,27.95
2023-03-03T05:56:54.786Z,32.95
2023-03-03T05:59:21.555Z,36.35
2023-03-03T06:01:48.129Z,34.83
2023-03-03T06:04:14.791Z,37.53
2023-03-03T06:06:41.333Z,35.25
2023-03-03T06:09:07.966Z,33.00
2023-03-03T06:11:34.568Z,34.55
2023-03-03T06:14:01.181Z,35.47
2023-03-03T06:16:27.754Z,38.10
2023-03-03T06:18:54.437Z,35.15
2023-03-03T06:21:20.993Z,33.35
2023-03-03T06:23:48.002Z,34.22
2023-03-03T06:26:14.551Z,33.92
2023-03-03T06:28:41.155Z,30.52
2023-03-03T06:31:07.863Z,32.38
2023-03-03T06:33:34.493Z,31.63
2023-03-03T06:36:01.203Z,30.88
2023-03-03T06:38:27.943Z,31.55
2023-03-03T06:40:54.486Z,32.72
2023-03-03T06:43:21.111Z,31.02
2023-03-03T06:45:53.725Z,29.52
2023-03-03T06:48:20.357Z,31.67
2023-03-03T06:50:46.997Z,31.38
2023-03-03T06:53:16.268Z,32.28
2023-03-03T06:55:44.894Z,31.35
2023-03-03T06:58:16.723Z,29.90
2023-03-03T07:00:59.492Z,28.00
2023-03-03T07:03:33.620Z,27.92
2023-03-03T07:06:00.937Z,28.40
2023-03-03T07:08:31.092Z,29.30
2023-03-03T07:11:01.915Z,29.05
2023-03-03T07:13:29.779Z,29.17
2023-03-03T07:15:57.366Z,30.13
2023-03-03T07:18:41.008Z,27.58
2023-03-03T07:21:20.082Z,30.77
2023-03-03T07:23:49.121Z,30.65
2023-03-03T07:26:19.458Z,32.40
2023-03-03T07:29:15.504Z,31.83
2023-03-03T07:31:45.732Z,29.98
2023-03-03T07:34:31.297Z,30.60
2023-03-03T07:37:00.073Z,30.35
2023-03-03T07:39:26.689Z,31.88
2023-03-03T07:41:56.312Z,29.90
2023-03-03T07:44:28.289Z,33.78
2023-03-03T07:46:54.820Z,34.25
2023-03-03T07:49:23.434Z,32.05
2023-03-03T07:51:54.839Z,33.45
2023-03-03T07:54:28.371Z,34.13
2023-03-03T07:57:05.943Z,32.88
2023-03-03T07:59:35.450Z,32.67
2023-03-03T08:02:02.048Z,33.00
2023-03-03T08:04:36.137Z,33.13
2023-03-03T08:07:03.555Z,31.92
2023-03-03T08:09:37.402Z,33.10
2023-03-03T08:12:07.117Z,35.08
2023-03-03T08:14:38.451Z,31.58
2023-03-03T08:17:15.305Z,30.95
2023-03-03T08:19:41.911Z,28.90
2023-03-03T08:22:17.428Z,27.83
2023-03-03T08:24:43.982Z,28.92
2023-03-03T08:27:10.559Z,29.45
2023-03-03T08:29:37.190Z,28.42
2023-03-03T08:32:03.979Z,30.27
2023-03-03T08:34:30.609Z,30.73
2023-03-03T08:36:58.577Z,30.73
2023-03-03T08:39:25.185Z,31.13
2023-03-03T08:41:51.723Z,32.45
2023-03-03T08:44:19.584Z,31.95
2023-03-03T08:46:46.527Z,31.58
2023-03-03T08:49:13.274Z,31.08
2023-03-03T08:51:40.370Z,32.17
2023-03-03T08:54:07.266Z,31.98
2023-03-03T08:56:33.824Z,35.25
2023-03-03T08:59:02.518Z,28.67
2023-03-03T09:01:33.040Z,30.63
2023-03-03T09:03:59.657Z,30.90
2023-03-03T09:06:26.266Z,29.08
2023-03-03T09:08:54.722Z,28.95
2023-03-03T09:11:27.725Z,28.63
2023-03-03T09:14:11.674Z,28.20
2023-03-03T09:16:40.738Z,23.08
2023-03-03T09:19:29.667Z,25.85
2023-03-03T09:21:59.397Z,21.70
2023-03-03T09:24:30.981Z,23.67
2023-03-03T09:26:59.006Z,20.65
2023-03-03T09:29:30.450Z,22.27
2023-03-03T09:32:02.236Z,23.10
2023-03-03T09:34:40.622Z,22.58
2023-03-03T09:37:45.626Z,22.45
2023-03-03T09:40:47.337Z,23.00
2023-03-03T09:43:24.083Z,20.80
2023-03-03T09:45:59.450Z,22.05
2023-03-03T09:48:35.110Z,21.25
2023-03-03T09:51:14.136Z,20.58
2023-03-03T09:54:12.345Z,20.83
2023-03-03T09:56:46.266Z,21.70
2023-03-03T09:59:25.243Z,21.58
2023-03-03T10:01:57.805Z,21.33
2023-03-03T10:04:33.182Z,21.63
2023-03-03T10:07:14.769Z,22.15
2023-03-03T10:10:09.030Z,20.70
2023-03-03T10:13:15.918Z,20.90
2023-03-03T10:15:54.711Z,19.42
2023-03-03T10:18:53.309Z,18.20
2023-03-03T10:21:40.028Z,22.92
2023-03-03T10:24:25.067Z,22.50
2023-03-03T10:27:13.452Z,22.67
2023-03-03T10:29:56.760Z,19.40
2023-03-03T10:33:15.023Z,20.20
2023-03-03T10:36:08.049Z,19.13
2023-03-03T10:38:56.120Z,19.75
2023-03-03T10:41:41.505Z,19.73
2023-03-03T10:44:17.129Z,20.88
2023-03-03T10:46:52.289Z,19.33
2023-03-03T10:49:46.629Z,18.92
2023-03-03T10:52:34.127Z,19.52
2023-03-03T10:55:15.627Z,24.17
2023-03-03T10:57:48.091Z,21.52
2023-03-03T11:00:42.444Z,21.58
2023-03-03T11:03:27.625Z,25.13
2023-03-03T11:06:01.378Z,21.23
2023-03-03T11:08:37.092Z,22.42
2023-03-03T11:11:18.745Z,22.80
2023-03-03T11:14:10.014Z,20.00
2023-03-03T11:20:23.517Z,24.42
2023-03-03T11:23:24.834Z,23.08
2023-03-03T11:28:48.361Z,20.35
2023-03-03T11:31:29.957Z,20.02
2023-03-03T11:34:39.846Z,24.58
2023-03-03T11:37:09.190Z,23.35
2023-03-03T11:39:36.939Z,25.90
2023-03-03T11:42:23.789Z,28.17
2023-03-03T11:44:55.381Z,27.42
2023-03-03T11:47:39.439Z,30.10
2023-03-03T11:50:22.584Z,31.27
2023-03-03T11:53:02.367Z,30.23
2023-03-03T11:55:39.641Z,27.15
2023-03-03T11:58:35.374Z,28.38
2023-03-03T12:01:25.183Z,26.38
2023-03-03T12:04:04.103Z,29.98
2023-03-03T12:06:37.285Z,28.42
2023-03-03T12:09:03.748Z,29.90
2023-03-03T12:11:48.016Z,27.33
2023-03-03T12:14:38.715Z,27.38
2023-03-03T12:17:18.505Z,27.13
2023-03-03T12:20:00.281Z,24.98
2023-03-03T12:23:05.769Z,27.70
2023-03-03T12:26:13.043Z,27.25
2023-03-03T12:29:21.262Z,26.00
2023-03-03T12:32:15.582Z,29.00
2023-03-03T12:34:52.856Z,29.10
2023-03-03T12:37:26.635Z,29.20
2023-03-03T12:40:17.774Z,26.27
2023-03-03T12:45:25.978Z,26.73
2023-03-03T12:48:18.853Z,29.65
2023-03-03T12:51:10.132Z,26.08
2023-03-03T12:54:01.618Z,24.20
2023-03-03T12:56:51.176Z,25.55
2023-03-03T12:59:20.720Z,25.27
2023-03-03T13:01:59.326Z,24.48
2023-03-03T13:04:29.942Z,24.83
2023-03-03T13:07:04.237Z,25.40
2023-03-03T13:09:43.200Z,20.10
2023-03-03T13:12:36.075Z,21.92
2023-03-03T13:15:16.267Z,19.73
2023-03-03T13:17:42.864Z,20.80
2023-03-03T13:20:27.133Z,20.35
2023-03-03T13:23:07.134Z,20.27
2023-03-03T13:25:45.788Z,20.17
2023-03-03T13:28:41.415Z,17.23
2023-03-03T13:31:21.696Z,17.23
2023-03-03T13:33:56.544Z,16.52
2023-03-03T13:36:42.480Z,15.98
2023-03-03T13:39:17.833Z,16.13
2023-03-03T13:41:48.949Z,18.25
2023-03-03T13:44:22.869Z,18.15
2023-03-03T13:46:55.268Z,17.27
2023-03-03T13:49:36.993Z,16.13
2023-03-03T13:52:12.262Z,16.13
2023-03-03T13:54:44.459Z,20.42
2023-03-03T13:57:45.724Z,16.95
2023-03-03T14:03:03.469Z,17.33
2023-03-03T14:05:37.398Z,18.55
2023-03-03T14:08:16.822Z,19.52
2023-03-03T14:10:59.286Z,19.30
2023-03-03T14:13:34.331Z,21.20
2023-03-03T14:16:10.448Z,20.10
2023-03-03T14:18:46.391Z,19.80
2023-03-03T14:21:19.504Z,20.90
2023-03-03T14:23:59.223Z,18.15
2023-03-03T14:26:25.867Z,17.90
2023-03-03T14:29:05.273Z,19.35
2023-03-03T14:31:43.426Z,17.75
2023-03-03T14:34:39.657Z,19.13
2023-03-03T14:37:26.877Z,17.23
2023-03-03T14:40:12.045Z,17.08
2023-03-03T14:42:48.884Z,17.23
2023-03-03T14:45:29.347Z,15.73
2023-03-03T14:47:56.933Z,16.52
2023-03-03T14:50:29.731Z,15.50
2023-03-03T14:53:36.207Z,14.95
2023-03-03T14:56:25.372Z,15.45
2023-03-03T14:59:21.110Z,14.13
2023-03-03T15:01:47.849Z,14.88
2023-03-03T15:04:14.376Z,13.13
2023-03-03T15:06:45.072Z,13.70
2023-03-03T15:09:26.977Z,14.23
2023-03-03T15:11:58.971Z,13.80
2023-03-03T15:14:36.172Z,14.10
2023-03-03T15:17:20.666Z,14.05
2023-03-03T15:20:19.950Z,13.98
2023-03-03T15:22:51.320Z,11.60
2023-03-03T15:25:41.872Z,13.25
2023-03-03T15:28:15.802Z,11.57
2023-03-03T15:30:42.378Z,11.80
2023-03-03T15:33:33.663Z,11.68
2023-03-03T15:36:03.843Z,12.25
2023-03-03T15:38:49.324Z,12.15
2023-03-03T15:41:39.426Z,10.48
2023-03-03T15:44:14.115Z,11.60
2023-03-03T15:47:03.860Z,10.60
2023-03-03T15:50:18.202Z,11.18
2023-03-03T15:53:00.673Z,10.77
2023-03-03T15:55:44.527Z,11.43
2023-03-03T15:58:33.339Z,10.38
2023-03-03T16:01:24.775Z,11.45
2023-03-03T16:04:05.295Z,10.82
2023-03-03T16:06:54.567Z,11.90
2023-03-03T16:09:37.581Z,12.25
2023-03-03T16:12:29.078Z,12.35
2023-03-03T16:15:26.737Z,11.20
2023-03-03T16:17:58.511Z,10.93
2023-03-03T16:20:30.921Z,10.82
2023-03-03T16:23:22.081Z,11.68
2023-03-03T16:28:33.822Z,11.75
2023-03-03T16:31:25.478Z,10.45
2023-03-03T16:34:10.630Z,12.13
2023-03-03T16:37:06.307Z,11.70
2023-03-03T16:39:41.118Z,12.82
2023-03-03T16:42:14.021Z,12.52
2023-03-03T16:44:52.190Z,12.90
2023-03-03T16:47:46.725Z,12.27
2023-03-03T16:50:22.331Z,13.40
2023-03-03T16:52:55.528Z,13.75
2023-03-03T16:55:26.596Z,13.55
2023-03-03T17:00:48.355Z,12.30
2023-03-03T17:03:40.933Z,12.85
2023-03-03T17:06:20.214Z,13.80
2023-03-03T17:09:31.539Z,12.52
2023-03-03T17:12:05.053Z,12.55
2023-03-03T17:15:05.570Z,12.40
2023-03-03T17:18:13.112Z,11.63
2023-03-03T17:20:49.723Z,14.07
2023-03-03T17:23:27.516Z,13.90
2023-03-03T17:26:03.154Z,15.55
2023-03-03T17:28:35.583Z,13.70
2023-03-03T17:31:13.995Z,15.18
2023-03-03T17:33:55.380Z,13.73
2023-03-03T17:37:07.105Z,13.50
2023-03-03T17:39:57.975Z,12.30
2023-03-03T17:42:39.667Z,13.73
2023-03-03T17:45:13.164Z,14.70
2023-03-03T17:48:13.507Z,14.88
2023-03-03T17:51:21.557Z,12.47
2023-03-03T17:54:23.282Z,15.02
2023-03-03T17:57:17.871Z,14.45
2023-03-03T18:00:03.959Z,15.80
2023-03-03T18:02:39.849Z,16.15
2023-03-03T18:05:25.819Z,15.30
2023-03-03T18:08:02.520Z,16.40
2023-03-03T18:10:38.135Z,14.75
2023-03-03T18:13:22.501Z,16.08
2023-03-03T18:16:12.373Z,17.63
2023-03-03T18:18:57.279Z,17.67
2023-03-03T18:21:44.420Z,17.48
2023-03-03T18:24:25.637Z,18.90
2023-03-03T18:29:22.702Z,22.92
2023-03-03T18:32:11.100Z,22.77
2023-03-03T18:34:41.608Z,21.20
2023-03-03T18:37:29.615Z,22.85
2023-03-03T18:40:02.185Z,22.48
2023-03-03T18:42:39.589Z,22.73
2023-03-03T18:45:18.321Z,21.20
2023-03-03T18:48:13.002Z,21.75
2023-03-03T18:50:44.640Z,23.15
2023-03-03T18:53:11.117Z,22.50
2023-03-03T18:55:43.057Z,25.48
2023-03-03T18:58:15.369Z,25.45
2023-03-03T19:00:45.664Z,22.92
2023-03-03T19:03:31.871Z,25.90
2023-03-03T19:06:00.072Z,22.95
2023-03-03T19:08:44.975Z,25.98
2023-03-03T19:11:44.936Z,25.27
2023-03-03T19:14:27.929Z,26.30
2023-03-03T19:16:55.918Z,25.85
2023-03-03T19:19:34.436Z,26.95
2023-03-03T19:22:23.541Z,25.90
2023-03-03T19:25:17.911Z,23.20
2023-03-03T19:28:05.840Z,25.17
2023-03-03T19:30:57.935Z,23.42
2023-03-03T19:33:40.720Z,22.17
2023-03-03T19:36:40.995Z,25.80
2023-03-03T19:39:46.455Z,24.55
2023-03-03T19:42:23.463Z,23.50
2023-03-03T19:45:14.943Z,23.73
2023-03-03T19:47:50.757Z,25.40
2023-03-03T19:50:26.363Z,24.70
2023-03-03T19:53:13.170Z,25.27
2023-03-03T19:55:54.568Z,24.20
2023-03-03T19:58:27.867Z,25.23
2023-03-03T20:01:03.264Z,26.27
2023-03-03T20:04:12.153Z,26.10
2023-03-03T20:07:10.882Z,25.27
2023-03-03T20:10:04.828Z,29.23
2023-03-03T20:12:53.142Z,27.10
2023-03-03T20:15:31.043Z,26.33
2023-03-03T20:18:25.470Z,26.65
2023-03-03T20:21:00.576Z,25.27
2023-03-03T20:24:12.162Z,24.90
2023-03-03T20:26:57.464Z,23.67
2023-03-03T20:29:33.239Z,25.92
2023-03-03T20:32:19.381Z,26.40
2023-03-03T20:34:55.682Z,26.80
2023-03-03T20:37:31.404Z,25.70
2023-03-03T20:40:22.916Z,23.65
2023-03-03T20:43:06.389Z,23.70
2023-03-03T20:45:47.729Z,25.05
2023-03-03T20:48:26.334Z,25.52
2023-03-03T20:51:01.293Z,24.15
2023-03-03T20:53:36.552Z,23.90
2023-03-03T20:56:14.099Z,25.65
2023-03-03T20:58:54.138Z,24.13
2023-03-03T21:01:44.129Z,25.75
2023-03-03T21:04:38.327Z,27.40
2023-03-03T21:07:05.673Z,23.77
2023-03-03T21:09:34.479Z,19.88
2023-03-03T21:12:03.120Z,21.90
2023-03-03T21:14:37.643Z,21.02
2023-03-03T21:17:27.447Z,19.13
2023-03-03T21:19:54.066Z,19.38
2023-03-03T21:22:20.622Z,18.42
2023-03-03T21:24:53.894Z,23.00
2023-03-03T21:27:25.979Z,18.05
2023-03-03T21:30:16.459Z,20.30
2023-03-03T21:32:44.801Z,18.88
2023-03-03T21:35:14.362Z,19.25
2023-03-03T21:37:50.289Z,19.13
2023-03-03T21:40:25.193Z,16.25
2023-03-03T21:42:53.887Z,16.90
2023-03-03T21:45:20.853Z,15.50
2023-03-03T21:47:48.192Z,15.00
2023-03-03T21:50:15.074Z,12.13
2023-03-03T21:52:41.634Z,11.77
2023-03-03T21:55:09.195Z,11.98
2023-03-03T21:57:35.920Z,12.52
2023-03-03T22:00:04.468Z,10.05
2023-03-03T22:02:31.100Z,8.88
2023-03-03T22:04:57.695Z,7.53
2023-03-03T22:07:24.247Z,9.05
2023-03-03T22:09:50.786Z,8.25
2023-03-03T22:12:17.472Z,7.57
2023-03-03T22:14:44.002Z,7.82
2023-03-03T22:17:10.832Z,6.07
2023-03-03T22:19:38.329Z,6.95
2023-03-03T22:22:05.260Z,4.00
2023-03-03T22:24:31.991Z,5.07
2023-03-03T22:26:58.667Z,4.93
2023-03-03T22:29:25.303Z,4.72
2023-03-03T22:31:52.115Z,6.18
2023-03-03T22:34:19.097Z,4.65
2023-03-03T22:36:45.702Z,4.30
2023-03-03T22:39:12.222Z,5.53
2023-03-03T22:41:38.812Z,4.70
2023-03-03T22:44:05.539Z,6.43
2023-03-03T22:46:32.197Z,4.90
2023-03-03T22:48:58.697Z,5.25
2023-03-03T22:51:26.182Z,5.22
2023-03-03T22:53:53.194Z,4.70
2023-03-03T22:56:19.918Z,4.57
2023-03-03T22:58:46.610Z,4.28
2023-03-03T23:01:13.120Z,4.78
2023-03-03T23:03:39.836Z,5.22
2023-03-03T23:06:06.664Z,4.35
2023-03-03T23:08:33.201Z,5.03
2023-03-03T23:10:59.757Z,5.43
2023-03-03T23:13:27.126Z,5.95
2023-03-03T23:15:53.784Z,6.05
2023-03-03T23:18:20.384Z,5.30
2023-03-03T23:20:46.932Z,5.82
2023-03-03T23:23:16.539Z,5.10
2023-03-03T23:25:43.078Z,5.47
2023-03-03T23:28:09.718Z,4.45
2023-03-03T23:30:36.212Z,5.07
2023-03-03T23:33:02.788Z,5.13
2023-03-03T23:35:29.341Z,4.63
2023-03-03T23:37:55.964Z,7.63
2023-03-03T23:40:22.577Z,6.97
2023-03-03T23:42:49.177Z,5.35
2023-03-03T23:45:16.383Z,5.20
2023-03-03T23:47:42.937Z,5.05
2023-03-03T23:50:11.263Z,4.80
2023-03-03T23:52:37.982Z,4.28
2023-03-03T23:55:05.769Z,4.28
2023-03-03T23:57:32.351Z,5.10
2023-03-03T23:59:58.922Z,5.13
